createdAt,value
2017-05-13T00:01:52.312Z,15.20
2017-05-13T00:04:20.684Z,15.20
2017-05-13T00:06:48.952Z,15.20
2017-05-13T00:09:17.243Z,15.20
2017-05-13T00:11:45.515Z,15.30
2017-05-13T00:14:14.481Z,15.30
2017-05-13T00:16:42.759Z,15.20
2017-05-13T00:19:11.070Z,15.20
2017-05-13T00:21:39.349Z,15.20
2017-05-13T00:24:07.724Z,15.10
2017-05-13T00:26:36.003Z,15.10
2017-05-13T00:29:04.294Z,15.00
2017-05-13T00:31:32.583Z,15.00
2017-05-13T00:34:02.361Z,15.00
2017-05-13T00:36:30.822Z,15.00
2017-05-13T00:38:59.095Z,15.00
2017-05-13T00:41:27.399Z,15.00
2017-05-13T00:43:55.755Z,15.00
2017-05-13T00:46:24.135Z,15.00
2017-05-13T00:48:52.407Z,14.90
2017-05-13T00:51:20.797Z,14.90
2017-05-13T00:53:49.068Z,14.90
2017-05-13T00:56:17.358Z,14.80
2017-05-13T00:58:45.719Z,14.80
2017-05-13T01:01:14.026Z,14.80
2017-05-13T01:03:42.319Z,14.70
2017-05-13T01:06:11.863Z,14.70
2017-05-13T01:08:40.152Z,14.70
2017-05-13T01:11:08.446Z,14.70
2017-05-13T01:13:36.739Z,14.70
2017-05-13T01:16:05.083Z,14.70
2017-05-13T01:18:33.371Z,14.70
2017-05-13T01:21:01.643Z,14.70
2017-05-13T01:23:29.931Z,14.70
2017-05-13T01:25:58.204Z,14.70
2017-05-13T01:28:26.491Z,14.70
2017-05-13T01:30:54.764Z,14.70
2017-05-13T01:33:23.071Z,14.80
2017-05-13T01:35:52.087Z,14.80
2017-05-13T01:38:20.393Z,14.70
2017-05-13T01:40:48.739Z,14.80
2017-05-13T01:43:17.012Z,14.80
2017-05-13T01:45:45.299Z,14.70
2017-05-13T01:48:13.575Z,14.70
2017-05-13T01:50:41.877Z,14.70
2017-05-13T01:53:10.151Z,14.70
2017-05-13T01:55:38.464Z,14.70
2017-05-13T01:58:07.511Z,14.60
2017-05-13T02:00:35.799Z,14.60
2017-05-13T02:03:04.071Z,14.60
2017-05-13T02:05:32.354Z,14.60
2017-05-13T02:08:00.662Z,14.70
2017-05-13T02:10:29.911Z,14.60
2017-05-13T02:12:58.286Z,14.50
2017-05-13T02:15:26.667Z,14.50
2017-05-13T02:17:54.953Z,14.50
2017-05-13T02:20:23.325Z,14.50
2017-05-13T02:22:51.633Z,14.40
2017-05-13T02:25:19.907Z,14.40
2017-05-13T02:27:48.677Z,14.40
2017-05-13T02:30:17.371Z,14.40
2017-05-13T02:32:45.738Z,14.40
2017-05-13T02:35:14.163Z,14.30
2017-05-13T02:37:43.205Z,14.30
2017-05-13T02:40:11.574Z,14.30
2017-05-13T02:42:39.847Z,14.30
2017-05-13T02:45:08.219Z,14.20
2017-05-13T02:47:36.511Z,14.20
2017-05-13T02:50:04.799Z,14.20
2017-05-13T02:52:33.174Z,14.10
2017-05-13T02:55:01.535Z,14.10
2017-05-13T02:57:29.807Z,14.10
2017-05-13T02:59:58.075Z,14.10
2017-05-13T03:02:26.368Z,14.10
2017-05-13T03:04:54.648Z,14.00
2017-05-13T03:07:23.019Z,14.00
2017-05-13T03:09:51.295Z,13.90
2017-05-13T03:12:19.598Z,14.00
2017-05-13T03:14:47.949Z,14.00
2017-05-13T03:17:16.243Z,14.00
2017-05-13T03:19:44.515Z,14.00
2017-05-13T03:22:12.814Z,14.00
2017-05-13T03:24:41.087Z,13.90
2017-05-13T03:27:09.359Z,13.90
2017-05-13T03:29:37.642Z,13.90
2017-05-13T03:32:05.911Z,13.80
2017-05-13T03:34:34.782Z,13.80
2017-05-13T03:37:03.144Z,13.80
2017-05-13T03:39:31.492Z,13.80
2017-05-13T03:41:59.769Z,13.80
2017-05-13T03:44:28.071Z,13.70
2017-05-13T03:46:56.462Z,13.70
2017-05-13T03:49:24.845Z,13.70
2017-05-13T03:51:53.210Z,13.70
2017-05-13T03:54:21.484Z,13.70
2017-05-13T03:56:49.872Z,13.70
2017-05-13T03:59:18.240Z,13.70
2017-05-13T04:01:46.527Z,13.70
2017-05-13T04:04:14.895Z,13.70
2017-05-13T04:06:43.187Z,13.70
2017-05-13T04:09:11.558Z,13.60
2017-05-13T04:11:39.927Z,13.60
2017-05-13T04:14:08.234Z,13.70
2017-05-13T04:16:36.584Z,13.70
2017-05-13T04:19:04.871Z,13.70
2017-05-13T04:21:33.161Z,13.70
2017-05-13T04:24:01.536Z,13.70
2017-05-13T04:26:29.886Z,13.80
2017-05-13T04:28:58.735Z,13.80
2017-05-13T04:31:27.786Z,13.90
2017-05-13T04:33:56.081Z,14.00
2017-05-13T04:36:24.352Z,14.00
2017-05-13T04:38:52.663Z,14.00
2017-05-13T04:41:20.949Z,14.00
2017-05-13T04:43:49.224Z,14.00
2017-05-13T04:46:17.512Z,14.10
2017-05-13T04:48:45.803Z,14.10
2017-05-13T04:51:14.179Z,14.20
2017-05-13T04:53:42.448Z,14.20
2017-05-13T04:56:10.766Z,14.30
2017-05-13T04:58:39.038Z,14.40
2017-05-13T05:01:07.384Z,14.40
2017-05-13T05:03:35.684Z,14.50
2017-05-13T05:06:04.359Z,14.50
2017-05-13T05:08:32.661Z,14.60
2017-05-13T05:11:00.935Z,14.70
2017-05-13T05:13:29.238Z,14.70
2017-05-13T05:15:57.516Z,14.80
2017-05-13T05:18:25.846Z,14.80
2017-05-13T05:20:54.207Z,14.90
2017-05-13T05:23:22.583Z,14.90
2017-05-13T05:25:50.958Z,15.00
2017-05-13T05:28:19.245Z,15.00
2017-05-13T05:30:47.746Z,15.10
2017-05-13T05:33:16.056Z,15.10
2017-05-13T05:35:45.071Z,15.00
2017-05-13T05:38:13.358Z,15.00
2017-05-13T05:40:41.648Z,15.00
2017-05-13T05:43:09.938Z,15.00
2017-05-13T05:45:38.512Z,15.00
2017-05-13T05:48:06.794Z,15.00
2017-05-13T05:50:35.098Z,15.10
2017-05-13T05:53:04.115Z,15.10
2017-05-13T05:55:32.415Z,15.10
2017-05-13T05:58:00.714Z,15.20
2017-05-13T06:00:29.090Z,15.30
2017-05-13T06:02:58.146Z,15.40
2017-05-13T06:05:26.433Z,15.40
2017-05-13T06:07:54.738Z,15.40
2017-05-13T06:10:23.015Z,15.50
2017-05-13T06:12:51.303Z,15.60
2017-05-13T06:15:19.659Z,15.70
2017-05-13T06:17:47.950Z,15.80
2017-05-13T06:20:16.313Z,15.90
2017-05-13T06:22:44.684Z,15.90
2017-05-13T06:25:13.471Z,16.00
2017-05-13T06:27:41.762Z,16.10
2017-05-13T06:30:10.141Z,16.20
2017-05-13T06:32:38.429Z,16.20
2017-05-13T06:35:06.738Z,16.30
2017-05-13T06:37:35.754Z,16.30
2017-05-13T06:40:04.147Z,16.40
2017-05-13T06:42:32.442Z,16.40
2017-05-13T06:45:00.770Z,16.50
2017-05-13T06:47:29.079Z,16.50
2017-05-13T06:49:57.355Z,16.60
2017-05-13T06:52:25.648Z,16.70
2017-05-13T06:54:53.915Z,16.80
2017-05-13T06:57:22.218Z,16.80
2017-05-13T06:59:50.495Z,16.90
2017-05-13T07:02:19.531Z,16.90
2017-05-13T07:04:47.807Z,17.00
2017-05-13T07:07:16.090Z,17.00
2017-05-13T07:09:44.358Z,17.10
2017-05-13T07:12:12.661Z,17.10
2017-05-13T07:14:40.954Z,17.10
2017-05-13T07:17:09.243Z,17.20
2017-05-13T07:19:37.515Z,17.20
2017-05-13T07:22:05.809Z,17.30
2017-05-13T07:24:35.528Z,17.30
2017-05-13T07:27:04.554Z,17.40
2017-05-13T07:29:32.841Z,17.40
2017-05-13T07:32:01.215Z,17.50
2017-05-13T07:34:29.586Z,17.50
2017-05-13T07:36:57.867Z,17.50
2017-05-13T07:39:26.263Z,17.50
2017-05-13T07:41:54.540Z,17.60
2017-05-13T07:44:22.851Z,17.60
2017-05-13T07:46:51.890Z,17.60
2017-05-13T07:49:20.162Z,17.60
2017-05-13T07:51:48.561Z,17.80
2017-05-13T07:54:16.923Z,17.90
2017-05-13T07:56:45.210Z,18.00
2017-05-13T07:59:13.484Z,18.10
2017-05-13T08:01:41.857Z,18.20
2017-05-13T08:04:10.131Z,18.30
2017-05-13T08:06:38.512Z,18.30
2017-05-13T08:09:06.817Z,18.30
2017-05-13T08:11:35.091Z,18.30
2017-05-13T08:14:03.380Z,18.40
2017-05-13T08:16:32.401Z,18.40
2017-05-13T08:19:00.707Z,18.40
2017-05-13T08:21:29.086Z,18.30
2017-05-13T08:23:57.778Z,18.30
2017-05-13T08:26:26.052Z,18.30
2017-05-13T08:28:54.355Z,18.40
2017-05-13T08:31:22.653Z,18.50
2017-05-13T08:33:51.677Z,18.60
2017-05-13T08:36:19.978Z,18.70
2017-05-13T08:38:48.272Z,18.90
2017-05-13T08:41:16.558Z,19.00
2017-05-13T08:43:44.828Z,19.10
2017-05-13T08:46:13.172Z,19.10
2017-05-13T08:48:41.458Z,19.20
2017-05-13T08:51:09.742Z,19.20
2017-05-13T08:53:38.411Z,19.20
2017-05-13T08:56:06.695Z,19.00
2017-05-13T08:58:34.995Z,18.90
2017-05-13T09:01:03.455Z,18.70
2017-05-13T09:03:31.746Z,18.70
2017-05-13T09:06:00.015Z,18.60
2017-05-13T09:08:28.299Z,18.50
2017-05-13T09:10:56.573Z,18.50
2017-05-13T09:13:24.880Z,18.50
2017-05-13T09:15:53.892Z,18.50
2017-05-13T09:18:22.187Z,18.60
2017-05-13T09:20:50.490Z,18.60
2017-05-13T09:23:19.252Z,18.60
2017-05-13T09:25:47.551Z,18.60
2017-05-13T09:28:15.841Z,18.50
2017-05-13T09:30:44.187Z,18.40
2017-05-13T09:33:12.602Z,18.40
2017-05-13T09:35:41.638Z,18.30
2017-05-13T09:38:10.027Z,18.00
2017-05-13T09:40:38.307Z,17.80
2017-05-13T09:43:06.947Z,17.50
2017-05-13T09:45:35.983Z,17.30
2017-05-13T09:48:04.281Z,17.30
2017-05-13T09:50:32.557Z,17.10
2017-05-13T09:53:01.120Z,17.10
2017-05-13T09:55:29.510Z,17.10
2017-05-13T09:57:57.779Z,17.00
2017-05-13T10:00:26.151Z,16.90
2017-05-13T10:02:54.433Z,16.90
2017-05-13T10:05:22.806Z,16.90
2017-05-13T10:07:51.074Z,16.90
2017-05-13T10:10:19.459Z,16.90
2017-05-13T10:12:47.726Z,16.90
2017-05-13T10:15:16.029Z,17.00
2017-05-13T10:17:44.315Z,17.00
2017-05-13T10:20:12.587Z,17.10
2017-05-13T10:22:41.645Z,17.00
2017-05-13T10:25:09.915Z,17.00
2017-05-13T10:27:38.311Z,17.10
2017-05-13T10:30:06.699Z,17.20
2017-05-13T10:32:34.978Z,18.50
2017-05-13T10:35:03.339Z,19.90
2017-05-13T10:37:31.643Z,21.00
2017-05-13T10:39:59.971Z,21.30
2017-05-13T10:42:28.254Z,21.20
2017-05-13T10:44:56.651Z,20.80
2017-05-13T10:47:24.970Z,20.40
2017-05-13T10:49:53.322Z,20.00
2017-05-13T10:52:21.693Z,19.60
2017-05-13T10:54:50.055Z,19.40
2017-05-13T10:57:18.318Z,19.20
2017-05-13T10:59:47.003Z,19.00
2017-05-13T11:02:15.417Z,19.00
2017-05-13T11:04:43.774Z,18.90
2017-05-13T11:07:12.060Z,19.00
2017-05-13T11:09:40.427Z,18.90
2017-05-13T11:12:08.731Z,18.90
2017-05-13T11:14:37.008Z,18.90
2017-05-13T11:17:05.295Z,18.90
2017-05-13T11:19:33.820Z,18.90
2017-05-13T11:22:09.525Z,18.80
2017-05-13T11:24:37.801Z,18.90
2017-05-13T11:27:06.079Z,19.00
2017-05-13T11:29:34.371Z,19.30
2017-05-13T11:32:02.644Z,19.70
2017-05-13T11:34:31.004Z,20.00
2017-05-13T11:36:59.283Z,20.20
2017-05-13T11:39:27.595Z,20.20
2017-05-13T11:41:55.868Z,20.50
2017-05-13T11:44:24.419Z,20.90
2017-05-13T11:46:52.792Z,20.90
2017-05-13T11:49:21.169Z,20.70
2017-05-13T11:51:49.468Z,20.50
2017-05-13T11:54:17.795Z,20.40
2017-05-13T11:56:46.102Z,20.10
2017-05-13T11:59:14.375Z,20.00
2017-05-13T12:01:42.655Z,19.90
2017-05-13T12:04:10.944Z,19.70
2017-05-13T12:06:39.219Z,19.70
2017-05-13T12:09:07.511Z,19.70
2017-05-13T12:11:35.851Z,19.70
2017-05-13T12:14:04.147Z,19.70
2017-05-13T12:16:32.509Z,19.70
2017-05-13T12:19:00.882Z,19.80
2017-05-13T12:21:29.155Z,20.00
2017-05-13T12:23:57.442Z,20.10
2017-05-13T12:26:25.816Z,20.20
2017-05-13T12:28:54.119Z,20.20
2017-05-13T12:31:22.467Z,20.20
2017-05-13T12:33:50.739Z,20.20
2017-05-13T12:36:19.118Z,20.20
2017-05-13T12:38:47.387Z,20.10
2017-05-13T12:41:15.775Z,20.30
2017-05-13T12:43:44.051Z,20.40
2017-05-13T12:46:12.343Z,20.50
2017-05-13T12:48:40.615Z,20.50
2017-05-13T12:51:08.980Z,20.40
2017-05-13T12:53:37.359Z,20.40
2017-05-13T12:56:05.654Z,20.40
2017-05-13T12:58:33.929Z,20.40
2017-05-13T13:01:02.203Z,20.40
2017-05-13T13:03:30.492Z,20.40
2017-05-13T13:05:58.776Z,20.50
2017-05-13T13:08:27.070Z,20.60
2017-05-13T13:10:56.083Z,20.60
2017-05-13T13:13:24.374Z,20.70
2017-05-13T13:15:52.648Z,20.90
2017-05-13T13:18:21.036Z,21.00
2017-05-13T13:20:50.027Z,21.00
2017-05-13T13:23:18.327Z,21.00
2017-05-13T13:25:46.703Z,21.00
2017-05-13T13:28:14.975Z,21.00
2017-05-13T13:30:43.339Z,21.00
2017-05-13T13:33:11.611Z,21.10
2017-05-13T13:35:39.899Z,21.10
2017-05-13T13:38:08.172Z,21.20
2017-05-13T13:40:36.464Z,21.30
2017-05-13T13:43:04.740Z,21.40
2017-05-13T13:45:33.101Z,21.40
2017-05-13T13:48:01.391Z,21.60
2017-05-13T13:50:29.662Z,21.70
2017-05-13T13:52:57.959Z,21.70
2017-05-13T13:55:26.567Z,21.70
2017-05-13T13:57:55.600Z,21.70
2017-05-13T14:00:23.980Z,21.60
2017-05-13T14:02:52.355Z,21.60
2017-05-13T14:05:20.627Z,21.40
2017-05-13T14:07:49.007Z,21.40
2017-05-13T14:10:17.387Z,21.30
2017-05-13T14:12:45.763Z,21.10
2017-05-13T14:15:14.144Z,20.90
2017-05-13T14:17:42.415Z,20.90
2017-05-13T14:20:10.707Z,20.80
2017-05-13T14:22:39.071Z,20.80
2017-05-13T14:25:07.363Z,20.70
2017-05-13T14:27:35.640Z,20.60
2017-05-13T14:30:03.944Z,20.50
2017-05-13T14:32:33.011Z,20.40
2017-05-13T14:35:01.287Z,20.40
2017-05-13T14:37:29.575Z,20.50
2017-05-13T14:39:57.848Z,20.50
2017-05-13T14:42:26.154Z,20.50
2017-05-13T14:44:54.439Z,20.70
2017-05-13T14:47:22.731Z,20.90
2017-05-13T14:49:51.743Z,21.20
2017-05-13T14:52:20.035Z,22.60
2017-05-13T14:54:48.310Z,25.60
2017-05-13T14:57:16.599Z,27.40
2017-05-13T14:59:44.872Z,27.40
2017-05-13T15:02:13.532Z,26.40
2017-05-13T15:04:41.807Z,25.30
2017-05-13T15:07:10.103Z,24.40
2017-05-13T15:09:38.376Z,23.60
2017-05-13T15:12:06.647Z,23.10
2017-05-13T15:14:34.944Z,22.80
2017-05-13T15:17:03.216Z,22.50
2017-05-13T15:19:31.514Z,22.30
2017-05-13T15:22:00.533Z,23.30
2017-05-13T15:24:28.831Z,25.90
2017-05-13T15:26:57.107Z,28.80
2017-05-13T15:29:25.384Z,30.80
2017-05-13T15:31:53.726Z,33.10
2017-05-13T15:34:22.736Z,34.40
2017-05-13T15:36:51.042Z,34.80
2017-05-13T15:39:19.323Z,36.40
2017-05-13T15:41:48.091Z,37.50
2017-05-13T15:44:16.364Z,36.70
2017-05-13T15:46:44.655Z,34.80
2017-05-13T15:49:12.954Z,32.80
2017-05-13T15:51:41.308Z,31.20
2017-05-13T15:54:09.603Z,31.20
2017-05-13T15:56:37.879Z,32.10
2017-05-13T15:59:06.168Z,32.50
2017-05-13T16:01:35.194Z,31.70
2017-05-13T16:04:03.482Z,30.50
2017-05-13T16:06:31.755Z,29.10
2017-05-13T16:09:00.148Z,28.00
2017-05-13T16:11:28.527Z,27.10
2017-05-13T16:13:58.111Z,26.20
2017-05-13T16:16:26.511Z,25.50
2017-05-13T16:18:54.890Z,24.90
2017-05-13T16:21:23.268Z,24.50
2017-05-13T16:23:51.647Z,24.30
2017-05-13T16:26:19.935Z,24.20
2017-05-13T16:28:48.214Z,24.10
2017-05-13T16:31:16.575Z,23.90
2017-05-13T16:33:44.847Z,23.60
2017-05-13T16:36:13.128Z,23.40
2017-05-13T16:38:41.418Z,23.10
2017-05-13T16:41:09.691Z,22.90
2017-05-13T16:43:37.979Z,22.70
2017-05-13T16:46:06.251Z,22.50
2017-05-13T16:48:34.547Z,22.30
2017-05-13T16:51:02.823Z,22.20
2017-05-13T16:53:31.155Z,22.20
2017-05-13T16:55:59.428Z,22.20
2017-05-13T16:58:27.816Z,22.10
2017-05-13T17:00:56.191Z,22.10
2017-05-13T17:03:24.479Z,22.10
2017-05-13T17:05:52.756Z,22.00
2017-05-13T17:08:21.049Z,21.90
2017-05-13T17:10:49.320Z,21.80
2017-05-13T17:13:17.611Z,21.70
2017-05-13T17:15:45.883Z,21.70
2017-05-13T17:18:14.171Z,21.60
2017-05-13T17:20:43.186Z,21.50
2017-05-13T17:23:11.483Z,21.40
2017-05-13T17:25:39.756Z,21.30
2017-05-13T17:28:08.027Z,21.20
2017-05-13T17:30:36.319Z,21.10
2017-05-13T17:33:05.313Z,21.00
2017-05-13T17:35:33.603Z,20.90
2017-05-13T17:38:01.876Z,20.90
2017-05-13T17:40:30.175Z,20.80
2017-05-13T17:42:58.524Z,20.70
2017-05-13T17:45:26.852Z,20.70
2017-05-13T17:47:56.783Z,20.60
2017-05-13T17:50:25.286Z,20.50
2017-05-13T17:52:53.575Z,20.30
2017-05-13T17:55:21.856Z,20.20
2017-05-13T17:57:50.229Z,20.10
2017-05-13T18:00:18.596Z,19.90
2017-05-13T18:02:47.572Z,19.70
2017-05-13T18:05:16.115Z,19.50
2017-05-13T18:07:45.155Z,19.40
2017-05-13T18:10:13.428Z,19.30
2017-05-13T18:12:41.735Z,19.30
2017-05-13T18:15:10.015Z,19.20
2017-05-13T18:17:38.287Z,19.10
2017-05-13T18:20:06.603Z,19.00
2017-05-13T18:22:35.620Z,18.90
2017-05-13T18:25:04.016Z,18.70
2017-05-13T18:27:32.291Z,18.70
2017-05-13T18:30:00.583Z,18.60
2017-05-13T18:32:28.860Z,18.50
2017-05-13T18:34:57.152Z,18.50
2017-05-13T18:37:25.506Z,18.50
2017-05-13T18:39:53.803Z,18.40
2017-05-13T18:42:22.075Z,18.20
2017-05-13T18:44:50.347Z,18.00
2017-05-13T18:47:18.635Z,17.90
2017-05-13T18:49:46.912Z,17.80
2017-05-13T18:52:15.262Z,17.70
2017-05-13T18:54:43.536Z,17.70
2017-05-13T18:57:11.829Z,17.70
2017-05-13T18:59:40.431Z,17.70
2017-05-13T19:02:08.722Z,17.70
2017-05-13T19:04:37.760Z,17.60
2017-05-13T19:07:06.049Z,17.60
2017-05-13T19:09:34.331Z,17.50
2017-05-13T19:12:02.606Z,17.30
2017-05-13T19:14:30.976Z,17.10
2017-05-13T19:16:59.263Z,17.00
2017-05-13T19:19:27.556Z,16.90
2017-05-13T19:21:55.831Z,16.90
2017-05-13T19:24:24.128Z,16.90
2017-05-13T19:26:53.144Z,16.90
2017-05-13T19:29:22.323Z,16.90
2017-05-13T19:31:50.641Z,16.90
2017-05-13T19:34:18.918Z,16.90
2017-05-13T19:36:47.212Z,16.80
2017-05-13T19:39:15.484Z,16.80
2017-05-13T19:41:43.787Z,16.80
2017-05-13T19:44:12.803Z,16.70
2017-05-13T19:46:41.730Z,16.70
2017-05-13T19:49:10.005Z,16.60
2017-05-13T19:51:38.300Z,16.40
2017-05-13T19:54:06.576Z,16.30
2017-05-13T19:56:34.846Z,16.40
2017-05-13T19:59:03.205Z,16.30
2017-05-13T20:01:31.487Z,16.30
2017-05-13T20:03:59.856Z,16.40
2017-05-13T20:06:28.129Z,16.40
2017-05-13T20:08:56.511Z,16.40
2017-05-13T20:11:25.101Z,16.40
2017-05-13T20:13:53.387Z,16.40
2017-05-13T20:16:21.660Z,16.40
2017-05-13T20:18:49.956Z,16.40
2017-05-13T20:21:18.241Z,16.40
2017-05-13T20:23:47.316Z,16.40
2017-05-13T20:26:15.597Z,16.30
2017-05-13T20:28:43.871Z,16.30
2017-05-13T20:31:12.226Z,16.30
2017-05-13T20:33:40.504Z,16.30
2017-05-13T20:36:08.815Z,16.30
2017-05-13T20:38:37.152Z,16.30
2017-05-13T20:41:05.427Z,16.30
2017-05-13T20:43:33.721Z,16.30
2017-05-13T20:46:01.995Z,16.20
2017-05-13T20:48:30.556Z,16.20
2017-05-13T20:50:59.148Z,16.20
2017-05-13T20:53:27.443Z,16.20
2017-05-13T20:55:55.719Z,16.10
2017-05-13T20:58:24.077Z,16.00
2017-05-13T21:00:52.357Z,16.00
2017-05-13T21:03:20.732Z,16.00
2017-05-13T21:05:49.003Z,16.00
2017-05-13T21:08:17.295Z,16.00
2017-05-13T21:10:45.571Z,16.00
2017-05-13T21:13:14.396Z,16.00
2017-05-13T21:15:43.435Z,16.00
2017-05-13T21:18:11.711Z,15.90
2017-05-13T21:20:40.092Z,15.90
2017-05-13T21:23:08.367Z,15.80
2017-05-13T21:25:36.659Z,15.80
2017-05-13T21:28:04.934Z,15.80
2017-05-13T21:30:33.295Z,15.70
2017-05-13T21:33:01.567Z,15.70
2017-05-13T21:35:29.839Z,15.70
2017-05-13T21:38:03.823Z,15.70
2017-05-13T21:40:32.099Z,15.70
2017-05-13T21:43:00.419Z,15.70
2017-05-13T21:45:28.695Z,15.70
2017-05-13T21:47:56.983Z,15.60
2017-05-13T21:50:25.276Z,15.50
2017-05-13T21:52:53.616Z,15.50
2017-05-13T21:55:21.891Z,15.60
2017-05-13T21:57:50.182Z,15.50
2017-05-13T22:00:18.543Z,15.50
2017-05-13T22:02:46.943Z,15.50
2017-05-13T22:05:15.220Z,15.60
2017-05-13T22:07:43.507Z,15.50
2017-05-13T22:10:11.780Z,15.50
2017-05-13T22:12:40.071Z,15.50
2017-05-13T22:15:09.119Z,15.40
2017-05-13T22:17:37.408Z,15.40
2017-05-13T22:20:06.091Z,15.40
2017-05-13T22:22:34.460Z,15.40
2017-05-13T22:25:02.740Z,15.40
2017-05-13T22:27:31.032Z,15.40
2017-05-13T22:29:59.318Z,15.40
2017-05-13T22:32:27.591Z,15.40
2017-05-13T22:34:55.939Z,15.40
2017-05-13T22:37:24.215Z,15.30
2017-05-13T22:39:52.503Z,15.30
2017-05-13T22:42:20.847Z,15.30
2017-05-13T22:44:49.136Z,15.40
2017-05-13T22:47:17.407Z,15.40
2017-05-13T22:49:46.375Z,15.40
2017-05-13T22:52:14.679Z,15.40
2017-05-13T22:54:42.952Z,15.50
2017-05-13T22:57:11.243Z,15.50
2017-05-13T22:59:39.729Z,15.40
2017-05-13T23:02:08.063Z,15.40
2017-05-13T23:04:37.068Z,15.40
2017-05-13T23:07:05.351Z,15.40
2017-05-13T23:09:34.049Z,15.40
2017-05-13T23:12:02.431Z,15.40
2017-05-13T23:14:30.703Z,15.40
2017-05-13T23:16:59.084Z,15.40
2017-05-13T23:19:27.827Z,15.40
2017-05-13T23:21:56.849Z,15.40
2017-05-13T23:24:25.243Z,15.40
2017-05-13T23:26:53.620Z,15.30
2017-05-13T23:29:21.915Z,15.30
2017-05-13T23:31:50.187Z,15.30
2017-05-13T23:34:18.488Z,15.30
2017-05-13T23:36:47.506Z,15.20
2017-05-13T23:39:15.819Z,15.30
2017-05-13T23:41:44.091Z,15.30
2017-05-13T23:44:12.480Z,15.30
2017-05-13T23:46:40.763Z,15.20
2017-05-13T23:49:09.493Z,15.20
2017-05-13T23:51:38.524Z,15.20
2017-05-13T23:54:06.796Z,15.20
2017-05-13T23:56:35.091Z,15.20
2017-05-13T23:59:03.372Z,15.20
